Time;durP1;ratioP1;P1;durP2;ratioP2;P2;SDS_P1;SDS_P2;PMS_P1;PMS_P2;Temp;Humidity;BMP_temperature;BMP_pressure;BME280_temperature;BME280_humidity;BME280_pressure;Samples;Min_cycle;Max_cycle;Signal;HPM_P1;HPM_P2
2022/03/09 00:02:18;;;;;;;7.27;4.80;;;;;;;-3.31;67.22;95817.48;1826070;78;21010;-67
2022/03/09 00:04:45;;;;;;;6.77;4.33;;;;;;;-3.20;67.15;95807.59;1825636;78;21077;-68
2022/03/09 00:07:11;;;;;;;9.87;5.23;;;;;;;-3.05;66.60;95809.45;1826202;78;21006;-68
2022/03/09 00:09:38;;;;;;;8.77;4.80;;;;;;;-3.03;65.21;95811.20;1825498;78;20971;-68
2022/03/09 00:12:06;;;;;;;10.83;4.77;;;;;;;-3.04;65.48;95814.20;1825948;78;21042;-68
2022/03/09 00:14:32;;;;;;;9.30;4.83;;;;;;;-2.98;65.28;95807.08;1826208;78;20994;-68
2022/03/09 00:16:59;;;;;;;9.23;4.50;;;;;;;-2.90;64.76;95805.26;1826077;78;21025;-68
2022/03/09 00:19:26;;;;;;;8.13;5.13;;;;;;;-2.82;64.25;95802.95;1826070;78;21018;-67
2022/03/09 00:21:52;;;;;;;11.10;5.33;;;;;;;-2.88;64.06;95797.55;1826235;78;20970;-67
2022/03/09 00:24:19;;;;;;;9.77;5.00;;;;;;;-2.93;63.51;95792.63;1825881;78;21066;-67
2022/03/09 00:26:47;;;;;;;7.90;5.00;;;;;;;-2.96;63.69;95787.37;1826429;78;20989;-67
2022/03/09 00:29:14;;;;;;;9.10;5.40;;;;;;;-3.01;63.56;95784.61;1826299;78;20993;-67
2022/03/09 00:31:40;;;;;;;8.80;5.20;;;;;;;-3.10;63.52;95783.88;1826109;78;21049;-67
2022/03/09 00:34:07;;;;;;;6.30;4.07;;;;;;;-3.19;63.61;95789.98;1826190;78;21484;-67
2022/03/09 00:36:33;;;;;;;7.10;4.07;;;;;;;-3.31;63.30;95786.52;1826055;78;20978;-67
2022/03/09 00:39:00;;;;;;;6.73;4.17;;;;;;;-3.31;63.73;95789.11;1825706;78;21524;-67
2022/03/09 00:41:27;;;;;;;7.53;4.33;;;;;;;-3.39;63.59;95795.69;1826340;78;21009;-67
2022/03/09 00:43:53;;;;;;;5.27;3.60;;;;;;;-3.45;63.36;95795.86;1826261;78;21543;-67
2022/03/09 00:46:20;;;;;;;5.53;3.40;;;;;;;-3.49;63.22;95790.59;1825968;78;20982;-67
2022/03/09 00:48:46;;;;;;;5.63;3.00;;;;;;;-3.54;62.94;95783.50;1826192;78;20987;-67
2022/03/09 00:51:13;;;;;;;6.40;3.50;;;;;;;-3.57;62.57;95788.13;1826104;78;21002;-67
2022/03/09 00:53:40;;;;;;;6.33;3.47;;;;;;;-3.66;62.72;95784.31;1825625;78;21056;-77
2022/03/09 00:56:08;;;;;;;6.87;3.27;;;;;;;-3.74;62.64;95786.59;1826035;78;21052;-68
2022/03/09 00:58:34;;;;;;;8.80;3.30;;;;;;;-3.79;63.30;95790.70;1826177;78;20947;-67
2022/03/09 01:01:01;;;;;;;5.27;2.90;;;;;;;-3.81;63.12;95791.04;1825723;78;21547;-68
2022/03/09 01:03:28;;;;;;;5.83;3.60;;;;;;;-3.82;62.47;95785.01;1825859;78;20983;-68
2022/03/09 01:05:55;;;;;;;11.17;4.90;;;;;;;-3.93;62.08;95788.47;1825932;78;21105;-67
2022/03/09 01:08:22;;;;;;;11.07;6.43;;;;;;;-4.05;63.85;95790.97;1822036;78;21003;-67
2022/03/09 01:10:48;;;;;;;8.20;4.73;;;;;;;-4.14;64.50;95789.75;1821159;79;21449;-67
2022/03/09 01:13:15;;;;;;;6.60;3.63;;;;;;;-4.22;64.58;95788.98;1821130;79;21544;-67
2022/03/09 01:15:42;;;;;;;4.83;3.30;;;;;;;-4.43;63.91;95792.44;1821136;79;20987;-67
2022/03/09 01:18:08;;;;;;;4.77;3.13;;;;;;;-4.46;64.48;95796.18;1821104;79;20975;-67
2022/03/09 01:20:35;;;;;;;6.20;3.57;;;;;;;-4.48;64.89;95801.67;1820985;79;21121;-67
2022/03/09 01:23:02;;;;;;;4.57;2.27;;;;;;;-4.42;65.31;95807.47;1821259;79;20974;-67
2022/03/09 01:25:29;;;;;;;12.27;4.27;;;;;;;-4.53;64.70;95798.02;1821027;79;20982;-67
2022/03/09 01:27:56;;;;;;;5.13;3.53;;;;;;;-4.61;65.95;95801.94;1821119;79;21066;-68
2022/03/09 01:30:22;;;;;;;7.53;4.50;;;;;;;-4.73;67.08;95810.05;1821500;79;20994;-68
2022/03/09 01:32:49;;;;;;;9.27;4.80;;;;;;;-4.81;66.45;95808.84;1820861;79;21033;-67
2022/03/09 01:35:16;;;;;;;7.03;4.57;;;;;;;-4.81;66.75;95813.58;1820949;79;21011;-68
2022/03/09 01:37:43;;;;;;;6.10;3.70;;;;;;;-4.82;66.07;95804.48;1821138;79;21053;-68
2022/03/09 01:40:11;;;;;;;9.33;3.93;;;;;;;-4.78;66.02;95793.52;1820825;79;21109;-67
2022/03/09 01:42:38;;;;;;;5.77;3.53;;;;;;;-4.76;66.34;95794.48;1821164;79;21436;-68
2022/03/09 01:45:07;;;;;;;5.17;3.57;;;;;;;-4.82;66.85;95794.19;1821312;79;21045;-67
2022/03/09 01:47:34;;;;;;;8.97;4.77;;;;;;;-4.96;67.30;95794.89;1821167;79;21481;-68
2022/03/09 01:50:01;;;;;;;15.67;7.27;;;;;;;-5.03;68.21;95795.44;1821122;79;21014;-68
2022/03/09 01:52:28;;;;;;;9.63;6.03;;;;;;;-4.94;68.03;95799.67;1820829;79;20990;-68
2022/03/09 01:54:56;;;;;;;13.03;7.30;;;;;;;-4.91;68.26;95802.41;1820760;79;21069;-68
2022/03/09 01:57:23;;;;;;;10.57;6.03;;;;;;;-4.88;67.68;95796.52;1821105;79;21014;-68
2022/03/09 01:59:52;;;;;;;11.77;6.77;;;;;;;-4.79;67.51;95799.08;1820950;79;21018;-67
2022/03/09 02:02:19;;;;;;;19.47;8.20;;;;;;;-4.75;66.67;95802.66;1821694;79;21002;-68
2022/03/09 02:04:47;;;;;;;15.07;7.43;;;;;;;-4.78;67.20;95802.53;1821391;79;21109;-68
2022/03/09 02:07:14;;;;;;;18.83;10.27;;;;;;;-4.92;68.22;95787.77;1822631;78;21069;-67
2022/03/09 02:09:46;;;;;;;13.70;7.40;;;;;;;-4.86;67.63;95796.18;1831265;78;21492;-68
2022/03/09 02:12:17;;;;;;;9.00;5.33;;;;;;;-4.76;67.05;95785.84;1832098;78;21026;-67
2022/03/09 02:14:49;;;;;;;7.80;4.67;;;;;;;-4.76;66.93;95785.84;1831866;78;21010;-67
2022/03/09 02:17:20;;;;;;;9.13;4.30;;;;;;;-4.66;67.01;95786.33;1831968;78;21551;-67
2022/03/09 02:19:49;;;;;;;6.47;4.67;;;;;;;-4.53;66.87;95792.00;1831610;78;21010;-67
2022/03/09 02:22:36;;;;;;;6.10;3.80;;;;;;;-4.46;66.30;95788.84;1831938;78;21568;-67
2022/03/09 02:25:08;;;;;;;7.17;4.10;;;;;;;-4.36;66.46;95793.55;1801770;78;21018;-67
2022/03/09 02:27:35;;;;;;;19.43;9.43;;;;;;;-4.22;66.06;95787.70;1831816;78;20986;-67
2022/03/09 02:30:03;;;;;;;15.73;9.10;;;;;;;-4.15;65.84;95784.14;1832320;78;20994;-67
2022/03/09 02:32:31;;;;;;;17.30;6.43;;;;;;;-4.16;65.65;95775.95;1831894;78;21025;-67
2022/03/09 02:34:57;;;;;;;7.57;5.10;;;;;;;-4.18;65.67;95766.41;1832093;78;21033;-67
2022/03/09 02:37:24;;;;;;;7.50;4.13;;;;;;;-4.14;65.53;95761.82;1831979;78;21029;-68
2022/03/09 02:39:51;;;;;;;7.73;4.20;;;;;;;-4.16;66.23;95768.61;1831586;78;21078;-68
2022/03/09 02:42:18;;;;;;;8.87;4.67;;;;;;;-4.23;65.60;95768.78;1831739;78;21090;-68
2022/03/09 02:44:44;;;;;;;10.57;6.60;;;;;;;-4.13;66.24;95766.17;1831587;78;21124;-67
2022/03/09 02:47:11;;;;;;;12.37;7.27;;;;;;;-4.23;67.77;95767.50;1832003;78;20956;-67
2022/03/09 02:49:38;;;;;;;8.37;4.43;;;;;;;-4.23;67.95;95762.77;1832096;78;20967;-67
2022/03/09 02:52:05;;;;;;;6.70;4.00;;;;;;;-4.12;67.21;95769.63;1832153;78;20990;-67
2022/03/09 02:54:32;;;;;;;9.00;4.87;;;;;;;-4.02;66.60;95771.33;1831840;78;21061;-68
2022/03/09 02:56:59;;;;;;;6.47;4.10;;;;;;;-3.92;65.84;95773.45;1831675;78;21121;-67
2022/03/09 02:59:25;;;;;;;5.90;4.03;;;;;;;-3.87;64.92;95774.93;1832014;78;21040;-67
2022/03/09 03:01:52;;;;;;;7.83;4.40;;;;;;;-3.83;64.02;95772.05;1831733;78;21116;-67
2022/03/09 03:04:19;;;;;;;8.53;4.53;;;;;;;-3.90;64.66;95772.23;1832119;78;21456;-67
2022/03/09 03:06:46;;;;;;;8.67;4.43;;;;;;;-3.94;64.90;95767.77;1831609;78;21022;-67
2022/03/09 03:09:12;;;;;;;6.10;3.80;;;;;;;-3.87;64.96;95767.61;1822996;78;21488;-67
2022/03/09 03:11:39;;;;;;;9.87;5.87;;;;;;;-3.75;64.93;95762.94;1820980;79;21026;-67
2022/03/09 03:14:07;;;;;;;17.47;5.97;;;;;;;-3.64;64.65;95760.77;1821415;79;20947;-67
2022/03/09 03:16:34;;;;;;;16.83;7.97;;;;;;;-3.61;64.60;95766.03;1821268;79;21041;-67
2022/03/09 03:19:00;;;;;;;14.83;7.00;;;;;;;-3.60;64.99;95767.39;1821511;79;20979;-67
2022/03/09 03:21:27;;;;;;;15.77;8.43;;;;;;;-3.71;65.65;95775.98;1820917;79;21086;-67
2022/03/09 03:23:53;;;;;;;21.30;9.67;;;;;;;-3.80;65.75;95773.06;1821248;79;21047;-67
2022/03/09 03:26:20;;;;;;;16.73;8.93;;;;;;;-3.74;65.90;95778.45;1821244;79;21025;-67
2022/03/09 03:28:47;;;;;;;12.67;7.50;;;;;;;-3.73;65.58;95781.52;1821149;79;21073;-67
2022/03/09 03:31:13;;;;;;;10.33;6.50;;;;;;;-3.88;65.93;95778.72;1821267;79;21480;-67
2022/03/09 03:33:40;;;;;;;12.20;7.10;;;;;;;-3.94;66.66;95783.23;1820842;79;21006;-67
2022/03/09 03:36:06;;;;;;;13.63;7.77;;;;;;;-3.88;66.40;95780.01;1820976;79;21050;-67
2022/03/09 03:38:33;;;;;;;13.33;7.50;;;;;;;-3.78;66.10;95778.26;1821266;79;21488;-67
2022/03/09 03:41:00;;;;;;;13.30;6.77;;;;;;;-3.68;66.05;95777.80;1821207;79;21029;-67
2022/03/09 03:43:27;;;;;;;11.37;6.43;;;;;;;-3.63;65.56;95768.53;1821071;79;21666;-67
2022/03/09 03:45:54;;;;;;;11.60;6.57;;;;;;;-3.63;65.48;95772.82;1821292;79;20999;-67
2022/03/09 03:48:20;;;;;;;11.73;7.20;;;;;;;-3.61;65.41;95775.92;1821178;79;21010;-67
2022/03/09 03:50:47;;;;;;;12.77;6.97;;;;;;;-3.63;65.46;95763.37;1821184;79;21037;-67
2022/03/09 03:55:54;;;;;;;11.83;6.57;;;;;;;-3.57;65.93;95763.63;1695203;85;21145;-67
2022/03/09 03:58:21;;;;;;;12.53;6.07;;;;;;;-3.53;65.00;95773.25;1695425;85;21138;-67
2022/03/09 04:00:48;;;;;;;10.80;6.00;;;;;;;-3.57;65.18;95762.76;1695510;85;21057;-67
2022/03/09 04:03:15;;;;;;;10.60;5.20;;;;;;;-3.55;65.16;95770.15;1669768;85;21074;-67
2022/03/09 04:05:41;;;;;;;10.47;5.43;;;;;;;-3.63;64.76;95771.12;1696078;85;20991;-67
2022/03/09 04:08:08;;;;;;;8.63;5.47;;;;;;;-3.77;65.65;95769.73;1695424;85;21086;-67
2022/03/09 04:10:35;;;;;;;10.33;5.47;;;;;;;-3.87;66.84;95774.05;1695244;85;21118;-67
2022/03/09 04:13:04;;;;;;;6.73;4.33;;;;;;;-3.95;67.29;95769.47;1695965;85;20983;-67
2022/03/09 04:15:32;;;;;;;12.80;6.13;;;;;;;-4.01;67.35;95767.05;1695406;85;21126;-72
2022/03/09 04:17:59;;;;;;;13.90;8.57;;;;;;;-4.07;68.19;95771.56;1695734;85;21014;-67
2022/03/09 04:20:26;;;;;;;19.37;10.03;;;;;;;-4.16;68.78;95765.64;1695926;85;20999;-67
2022/03/09 04:22:53;;;;;;;17.53;9.67;;;;;;;-4.09;69.22;95768.03;1695948;85;21026;-67
2022/03/09 04:25:19;;;;;;;20.90;13.17;;;;;;;-4.11;68.96;95768.38;1695287;85;21150;-67
2022/03/09 04:27:46;;;;;;;19.57;10.80;;;;;;;-4.02;69.19;95770.46;1695628;85;21096;-67
2022/03/09 04:30:13;;;;;;;33.00;18.33;;;;;;;-3.94;68.65;95775.09;1695634;85;21039;-67
2022/03/09 04:32:41;;;;;;;22.30;12.13;;;;;;;-3.89;68.50;95770.53;1695753;85;21038;-66
2022/03/09 04:35:09;;;;;;;18.33;9.93;;;;;;;-3.87;67.88;95778.80;1695648;85;21046;-66
2022/03/09 04:37:36;;;;;;;15.63;9.30;;;;;;;-3.94;68.39;95777.66;1695456;85;21010;-66
2022/03/09 04:40:06;;;;;;;14.53;8.10;;;;;;;-3.98;67.78;95774.90;1695473;85;21086;-67
2022/03/09 04:42:33;;;;;;;13.43;7.87;;;;;;;-3.90;67.11;95781.67;1695659;85;21003;-67
2022/03/09 04:45:00;;;;;;;10.33;6.30;;;;;;;-3.90;67.53;95784.25;1695707;85;21469;-67
2022/03/09 04:47:26;;;;;;;7.47;4.53;;;;;;;-3.88;66.43;95781.30;1695744;85;21070;-67
2022/03/09 04:49:53;;;;;;;49.80;22.20;;;;;;;-3.96;66.61;95787.44;1695653;85;21098;-69
2022/03/09 04:52:21;;;;;;;78.47;34.80;;;;;;;-4.05;66.02;95785.39;1695746;85;21062;-69
2022/03/09 04:54:48;;;;;;;76.67;34.57;;;;;;;-4.03;66.59;95784.14;1695552;85;21117;-70
2022/03/09 04:57:15;;;;;;;133.13;56.63;;;;;;;-4.04;67.29;95780.70;1695577;85;21500;-70
2022/03/09 04:59:42;;;;;;;91.03;41.87;;;;;;;-3.93;67.16;95787.59;1695518;85;21098;-70
2022/03/09 05:02:09;;;;;;;29.77;14.00;;;;;;;-3.92;67.06;95778.61;1695851;85;21529;-70
2022/03/09 05:04:36;;;;;;;8.03;4.63;;;;;;;-3.93;66.97;95785.88;1695649;85;21118;-70
2022/03/09 05:07:03;;;;;;;11.30;5.70;;;;;;;-3.81;67.02;95798.36;1695688;85;21106;-70
2022/03/09 05:09:30;;;;;;;9.90;5.20;;;;;;;-3.83;67.39;95803.89;1695724;85;21473;-70
2022/03/09 05:11:57;;;;;;;9.40;4.83;;;;;;;-3.85;66.60;95799.08;1695438;85;21097;-70
2022/03/09 05:14:24;;;;;;;6.17;4.23;;;;;;;-3.83;66.32;95818.07;1695649;85;21074;-70
2022/03/09 05:16:50;;;;;;;7.53;5.20;;;;;;;-3.80;65.69;95804.00;1695627;85;21026;-70
2022/03/09 05:19:17;;;;;;;32.30;16.00;;;;;;;-3.87;65.23;95807.16;1695656;85;21031;-70
2022/03/09 05:21:44;;;;;;;176.80;57.77;;;;;;;-3.87;66.84;95812.31;1695822;85;21098;-70
2022/03/09 05:24:10;;;;;;;82.43;36.30;;;;;;;-3.86;67.54;95814.47;1695618;85;21006;-70
2022/03/09 05:26:37;;;;;;;87.77;37.37;;;;;;;-3.93;67.39;95807.80;1695507;85;21042;-70
2022/03/09 05:29:04;;;;;;;81.20;34.07;;;;;;;-4.02;67.74;95814.27;1695738;85;21509;-70
2022/03/09 05:31:31;;;;;;;79.57;32.20;;;;;;;-4.08;68.40;95812.72;1695695;85;21014;-70
2022/03/09 05:33:57;;;;;;;58.77;24.80;;;;;;;-4.05;68.00;95816.31;1695680;85;21038;-70
2022/03/09 05:36:24;;;;;;;139.27;52.80;;;;;;;-4.00;67.59;95816.09;1695620;85;21528;-70
2022/03/09 05:38:51;;;;;;;39.73;18.43;;;;;;;-3.94;67.45;95822.77;1695759;85;21002;-70
2022/03/09 05:41:18;;;;;;;41.60;20.50;;;;;;;-3.87;67.68;95823.91;1695398;85;21030;-70
2022/03/09 05:43:44;;;;;;;72.20;32.63;;;;;;;-3.79;67.74;95820.34;1695849;85;21469;-70
2022/03/09 05:46:11;;;;;;;71.77;33.27;;;;;;;-3.80;68.42;95829.78;1695591;85;21082;-70
2022/03/09 05:48:38;;;;;;;60.37;28.03;;;;;;;-3.72;69.13;95824.93;1695579;85;21071;-70
2022/03/09 05:51:05;;;;;;;68.57;28.17;;;;;;;-3.55;68.87;95820.44;1695683;85;21036;-70
2022/03/09 05:53:31;;;;;;;66.47;31.93;;;;;;;-3.30;68.85;95821.84;1695744;85;21062;-70
2022/03/09 05:55:58;;;;;;;32.20;16.60;;;;;;;-3.18;67.92;95820.53;1695357;85;21074;-70
2022/03/09 05:58:25;;;;;;;42.93;19.77;;;;;;;-3.09;68.27;95828.63;1695594;85;21030;-72
2022/03/09 06:00:52;;;;;;;50.63;23.50;;;;;;;-3.03;67.39;95827.97;1695477;85;21142;-70
2022/03/09 06:03:18;;;;;;;47.53;23.27;;;;;;;-2.94;67.28;95832.20;1694872;85;21572;-72
2022/03/09 06:05:45;;;;;;;30.07;14.70;;;;;;;-2.89;67.24;95829.38;1695340;85;20987;-71
2022/03/09 06:08:11;;;;;;;40.00;18.43;;;;;;;-2.78;67.31;95829.75;1694359;85;21003;-69
2022/03/09 06:10:38;;;;;;;36.33;17.30;;;;;;;-2.74;66.13;95831.63;1694755;85;21022;-69
2022/03/09 06:13:04;;;;;;;27.07;13.97;;;;;;;-2.69;66.18;95835.25;1694440;85;21125;-69
2022/03/09 06:15:31;;;;;;;22.47;12.17;;;;;;;-2.64;65.30;95837.17;1693826;85;21117;-69
2022/03/09 06:17:58;;;;;;;24.20;12.13;;;;;;;-2.62;64.68;95835.95;1694901;85;21062;-70
2022/03/09 06:20:27;;;;;;;21.47;11.07;;;;;;;-2.66;65.26;95836.66;1695513;85;21038;-68
2022/03/09 06:22:55;;;;;;;18.03;10.80;;;;;;;-2.60;65.14;95838.14;1695246;85;21101;-68
2022/03/09 06:25:22;;;;;;;20.87;9.57;;;;;;;-2.51;64.54;95831.16;1695684;85;21552;-70
2022/03/09 06:27:51;;;;;;;19.70;10.43;;;;;;;-2.47;63.17;95837.78;1695417;85;21050;-70
2022/03/09 06:30:18;;;;;;;25.83;10.27;;;;;;;-2.41;63.43;95838.39;1695198;85;21078;-70
2022/03/09 06:32:47;;;;;;;16.90;8.47;;;;;;;-2.28;63.31;95835.82;1695498;85;21058;-71
2022/03/09 06:35:15;;;;;;;20.07;8.77;;;;;;;-2.25;62.18;95839.37;1695645;85;21030;-72
2022/03/09 06:37:42;;;;;;;15.07;8.03;;;;;;;-2.09;61.29;95840.80;1694082;85;21121;-78
2022/03/09 06:40:11;;;;;;;16.27;7.47;;;;;;;-2.02;60.67;95844.03;1695021;85;21651;-78
2022/03/09 06:42:38;;;;;;;10.27;5.43;;;;;;;-1.91;59.61;95842.24;1694762;85;21074;-71
2022/03/09 06:45:07;;;;;;;11.13;6.67;;;;;;;-1.85;60.72;95839.42;1695457;85;21465;-72
2022/03/09 06:47:38;;;;;;;13.87;6.80;;;;;;;-1.77;60.58;95830.62;1695851;85;21034;-83
2022/03/09 06:50:03;;;;;;;14.70;6.50;;;;;;;-1.61;58.89;95832.02;1693963;85;21537;-72
2022/03/09 06:52:30;;;;;;;14.23;6.43;;;;;;;-1.49;58.77;95841.84;1695499;85;21002;-72
2022/03/09 06:55:02;;;;;;;11.60;6.33;;;;;;;-1.38;58.97;95842.66;1715596;82;20971;-68
2022/03/09 06:57:26;;;;;;;16.10;9.00;;;;;;;-1.24;57.35;95854.72;1710831;84;21027;-70
2022/03/09 06:59:52;;;;;;;15.97;7.80;;;;;;;-1.11;57.25;95850.40;1682755;85;21514;-70
2022/03/09 07:02:19;;;;;;;12.77;7.07;;;;;;;-1.10;57.52;95842.20;1678568;84;21577;-70
2022/03/09 07:04:45;;;;;;;9.27;5.40;;;;;;;-1.04;57.65;95842.38;1685251;83;21011;-70
2022/03/09 07:07:12;;;;;;;11.40;7.10;;;;;;;-0.99;56.62;95838.21;1679950;85;21131;-73
2022/03/09 07:09:38;;;;;;;11.70;5.43;;;;;;;-0.94;56.96;95841.81;1685666;85;21541;-70
2022/03/09 07:12:06;;;;;;;9.67;5.37;;;;;;;-0.90;55.51;95842.80;1685096;85;21080;-74
2022/03/09 07:14:33;;;;;;;18.17;7.80;;;;;;;-0.78;56.74;95849.64;1680611;84;21002;-68
2022/03/09 07:17:02;;;;;;;17.20;10.77;;;;;;;-0.67;56.02;95850.81;1685195;84;21030;-86
2022/03/09 07:19:29;;;;;;;13.23;7.80;;;;;;;-0.56;55.85;95837.27;1713826;83;21023;-74
2022/03/09 07:21:55;;;;;;;18.13;9.00;;;;;;;-0.52;55.70;95837.83;1716313;83;21085;-72
2022/03/09 07:24:22;;;;;;;20.70;9.57;;;;;;;-0.53;55.55;95838.26;1686332;85;21059;-80
2022/03/09 07:26:49;;;;;;;16.33;8.13;;;;;;;-0.49;55.21;95840.08;1672936;84;21034;-78
2022/03/09 07:29:17;;;;;;;13.93;7.27;;;;;;;-0.46;54.03;95829.78;1702450;83;21383;-73
2022/03/09 07:31:44;;;;;;;13.17;7.07;;;;;;;-0.46;52.83;95826.32;1710635;84;21495;-74
2022/03/09 07:34:11;;;;;;;10.80;5.67;;;;;;;-0.40;54.26;95825.21;1695293;83;20943;-78
2022/03/09 07:36:38;;;;;;;12.60;6.23;;;;;;;-0.35;53.62;95826.61;1716003;83;21563;-86
2022/03/09 07:39:05;;;;;;;12.00;7.30;;;;;;;-0.31;54.22;95825.44;1692491;83;20990;-75
2022/03/09 07:41:31;;;;;;;8.10;5.17;;;;;;;-0.24;54.21;95822.60;1707931;84;21043;-73
2022/03/09 07:43:58;;;;;;;15.90;5.20;;;;;;;-0.18;53.44;95836.14;1678513;85;21438;-74
2022/03/09 07:46:25;;;;;;;14.73;7.87;;;;;;;-0.17;51.66;95825.82;1717860;83;20984;-73
2022/03/09 07:48:51;;;;;;;9.13;5.53;;;;;;;-0.18;51.88;95827.94;1707880;84;21488;-74
2022/03/09 07:51:18;;;;;;;9.90;6.10;;;;;;;-0.17;51.30;95833.60;1677639;85;21007;-71
2022/03/09 07:53:46;;;;;;;8.77;5.53;;;;;;;-0.10;52.08;95819.96;1675286;85;21081;-76
2022/03/09 07:56:13;;;;;;;9.23;6.07;;;;;;;-0.05;51.28;95814.86;1678648;85;21045;-73
2022/03/09 07:58:40;;;;;;;8.40;4.17;;;;;;;0.08;51.70;95829.05;1680981;85;21481;-74
2022/03/09 08:01:07;;;;;;;8.63;5.10;;;;;;;0.08;50.34;95829.05;1678658;85;21022;-75
2022/03/09 08:03:34;;;;;;;8.37;5.40;;;;;;;0.05;50.95;95835.44;1676686;85;21010;-73
2022/03/09 08:06:01;;;;;;;11.30;4.53;;;;;;;0.13;50.81;95837.83;1677936;85;20996;-72
2022/03/09 08:08:29;;;;;;;11.53;3.53;;;;;;;0.22;50.56;95834.16;1680798;85;21000;-72
2022/03/09 08:10:55;;;;;;;8.13;4.43;;;;;;;0.25;50.08;95831.63;1709624;83;20957;-66
2022/03/09 08:13:23;;;;;;;6.80;4.43;;;;;;;0.30;50.84;95833.04;1708369;84;20955;-74
2022/03/09 08:15:49;;;;;;;6.97;3.80;;;;;;;0.40;49.50;95839.81;1677771;85;20995;-69
2022/03/09 08:18:16;;;;;;;5.30;3.17;;;;;;;0.48;49.28;95837.80;1676755;85;20979;-69
2022/03/09 08:20:43;;;;;;;6.00;3.50;;;;;;;0.45;48.31;95842.92;1715955;83;21023;-73
2022/03/09 08:23:10;;;;;;;4.67;3.00;;;;;;;0.47;48.54;95838.66;1706954;82;20990;-71
2022/03/09 08:25:37;;;;;;;12.97;10.93;;;;;;;0.53;47.45;95820.22;1701168;84;21439;-73
2022/03/09 08:28:04;;;;;;;5.63;3.00;;;;;;;0.50;47.93;95820.55;1705949;84;21003;-72
2022/03/09 08:30:31;;;;;;;5.17;2.90;;;;;;;0.48;47.42;95820.92;1708165;84;20987;-71
2022/03/09 08:32:57;;;;;;;7.00;3.60;;;;;;;0.53;47.06;95825.80;1681218;85;20964;-70
2022/03/09 08:35:24;;;;;;;9.30;3.70;;;;;;;0.59;47.72;95819.05;1716109;83;21007;-75
2022/03/09 08:37:51;;;;;;;4.70;3.00;;;;;;;0.61;48.83;95825.16;1705952;83;21554;-71
2022/03/09 08:40:17;;;;;;;5.23;3.27;;;;;;;0.67;46.92;95821.81;1705723;84;20977;-71
2022/03/09 08:42:44;;;;;;;4.70;3.33;;;;;;;0.73;47.95;95821.08;1705966;84;21120;-72
2022/03/09 08:45:11;;;;;;;8.33;3.93;;;;;;;0.96;47.37;95820.28;1717284;83;20934;-74
2022/03/09 08:47:39;;;;;;;9.77;4.53;;;;;;;1.11;47.06;95812.85;1707250;84;20968;-73
2022/03/09 08:50:07;;;;;;;5.33;2.80;;;;;;;1.12;45.91;95813.72;1677519;85;21007;-68
2022/03/09 08:52:34;;;;;;;10.00;2.87;;;;;;;0.97;46.08;95811.23;1677856;85;21047;-68
2022/03/09 08:55:01;;;;;;;13.77;3.27;;;;;;;0.90;45.85;95814.97;1677001;85;20940;-67
2022/03/09 08:57:28;;;;;;;7.20;3.20;;;;;;;0.85;47.18;95812.27;1722301;83;21023;-70
2022/03/09 08:59:57;;;;;;;5.03;3.03;;;;;;;0.95;47.28;95817.25;1709868;84;21467;-74
2022/03/09 09:02:24;;;;;;;6.80;2.63;;;;;;;1.03;46.44;95812.69;1676091;85;21530;-69
2022/03/09 09:04:51;;;;;;;5.07;3.17;;;;;;;1.02;46.64;95812.22;1700083;84;20979;-70
2022/03/09 09:07:21;;;;;;;9.37;3.00;;;;;;;1.19;47.35;95802.61;1706036;84;21499;-67
2022/03/09 09:09:48;;;;;;;5.87;3.70;;;;;;;1.36;46.12;95802.94;1675888;85;20979;-69
2022/03/09 09:12:15;;;;;;;4.03;3.03;;;;;;;1.51;46.09;95796.73;1676822;85;21026;-68
2022/03/09 09:14:42;;;;;;;8.87;3.07;;;;;;;1.80;45.83;95799.91;1699611;84;21027;-67
2022/03/09 09:17:10;;;;;;;4.77;3.50;;;;;;;2.04;45.83;95795.98;1697079;84;21006;-68
2022/03/09 09:19:36;;;;;;;7.07;3.60;;;;;;;2.22;45.59;95795.41;1699700;84;21018;-69
2022/03/09 09:22:03;;;;;;;3.97;2.90;;;;;;;2.10;42.53;95795.67;1708964;84;21647;-73
2022/03/09 09:24:31;;;;;;;4.27;3.10;;;;;;;2.18;41.87;95801.00;1676076;85;21012;-73
2022/03/09 09:26:58;;;;;;;7.67;4.67;;;;;;;2.24;41.81;95796.31;1678163;85;21548;-70
2022/03/09 09:29:24;;;;;;;6.27;3.73;;;;;;;2.25;41.52;95795.05;1675842;85;20941;-73
2022/03/09 09:31:51;;;;;;;6.07;3.50;;;;;;;1.88;42.06;95806.11;1699450;84;21120;-66
2022/03/09 09:34:18;;;;;;;3.10;2.80;;;;;;;1.49;42.00;95809.73;1708077;83;21042;-69
2022/03/09 09:36:46;;;;;;;10.00;4.13;;;;;;;1.28;41.44;95806.68;1675646;85;21207;-67
2022/03/09 09:39:15;;;;;;;4.70;3.20;;;;;;;1.34;42.67;95806.83;1678356;85;21486;-67
2022/03/09 09:41:44;;;;;;;4.77;3.30;;;;;;;1.65;43.87;95805.69;1672598;85;21084;-71
2022/03/09 09:44:12;;;;;;;8.37;3.33;;;;;;;1.97;41.70;95806.72;1678199;85;21003;-70
2022/03/09 09:46:41;;;;;;;5.87;3.67;;;;;;;2.27;40.71;95806.78;1675099;85;21117;-69
2022/03/09 09:49:14;;;;;;;5.93;2.67;;;;;;;2.41;39.92;95801.37;1676461;85;21043;-68
2022/03/09 09:51:44;;;;;;;6.03;3.45;;;;;;;2.72;41.53;95804.45;1673936;85;21011;-70
2022/03/09 09:54:13;;;;;;;3.83;2.83;;;;;;;2.94;41.27;95798.70;1676104;85;21026;-68
2022/03/09 09:56:42;;;;;;;3.87;2.63;;;;;;;2.92;41.10;95803.45;1675894;85;21541;-67
2022/03/09 09:59:09;;;;;;;5.57;3.20;;;;;;;2.94;40.68;95797.40;1693183;85;21030;-66
2022/03/09 10:01:37;;;;;;;6.47;2.97;;;;;;;3.19;42.39;95799.91;1693069;85;21015;-69
2022/03/09 10:04:05;;;;;;;5.57;3.83;;;;;;;3.52;44.07;95799.02;1693147;84;21145;-79
2022/03/09 10:06:33;;;;;;;4.50;3.33;;;;;;;3.58;41.00;95797.77;1693671;85;21106;-73
2022/03/09 10:09:05;;;;;;;10.57;4.37;;;;;;;3.50;41.71;95800.73;1692541;84;21038;-69
2022/03/09 10:11:53;;;;;;;9.77;4.80;;;;;;;3.19;40.43;95809.04;1690878;85;21553;-69
2022/03/09 10:14:52;;;;;;;9.13;4.13;;;;;;;2.78;40.83;95808.47;1692282;85;20975;-69
2022/03/09 10:17:23;;;;;;;5.23;3.93;;;;;;;2.26;40.34;95813.72;1701447;84;21461;-70
2022/03/09 10:19:55;;;;;;;4.93;3.80;;;;;;;1.87;41.26;95827.80;1693761;84;21415;-69
2022/03/09 10:22:35;;;;;;;4.80;3.60;;;;;;;2.22;42.47;95825.34;1693789;85;21058;-69
2022/03/09 10:25:17;;;;;;;5.50;4.00;;;;;;;2.53;40.95;95813.30;1691075;85;21107;-68
2022/03/09 10:27:48;;;;;;;5.87;3.70;;;;;;;2.49;40.26;95811.48;1690254;85;21031;-69
2022/03/09 10:30:19;;;;;;;5.40;3.40;;;;;;;2.40;40.54;95813.97;1697433;84;21046;-68
2022/03/09 10:33:08;;;;;;;6.50;4.33;;;;;;;2.46;37.83;95811.45;1691910;85;20996;-69
2022/03/09 10:35:45;;;;;;;5.77;4.23;;;;;;;2.36;40.10;95813.45;1698609;84;21027;-72
2022/03/09 10:38:20;;;;;;;5.57;3.90;;;;;;;2.31;42.83;95811.20;1689527;85;21509;-68
2022/03/09 10:40:51;;;;;;;12.83;6.50;;;;;;;2.60;42.15;95794.31;1689571;84;21143;-68
2022/03/09 10:43:22;;;;;;;7.57;5.07;;;;;;;2.90;41.25;95790.81;1689602;84;21552;-68
2022/03/09 10:46:11;;;;;;;8.57;6.37;;;;;;;3.20;41.63;95776.02;1689681;84;21132;-68
2022/03/09 10:49:00;;;;;;;9.93;5.63;;;;;;;2.91;41.26;95789.98;1689542;85;21094;-68
2022/03/09 10:51:44;;;;;;;8.57;4.60;;;;;;;2.59;41.96;95799.05;1689918;84;21521;-68
2022/03/09 10:54:17;;;;;;;7.58;4.08;;;;;;;2.21;41.98;95795.84;1689803;85;21050;-68
2022/03/09 10:56:46;;;;;;;7.55;4.45;;;;;;;2.00;41.20;95798.96;1668336;84;21535;-68
2022/03/09 10:59:24;;;;;;;6.60;4.73;;;;;;;1.81;42.55;95801.64;1702414;84;21035;-68
2022/03/09 11:02:12;;;;;;;4.43;3.40;;;;;;;1.68;42.83;95791.44;1702127;84;21011;-68
2022/03/09 11:04:40;;;;;;;4.60;3.17;;;;;;;1.79;42.13;95794.66;1702443;84;21122;-69
2022/03/09 11:07:09;;;;;;;5.37;3.97;;;;;;;1.96;41.28;95788.03;1702351;84;21062;-69
2022/03/09 11:09:37;;;;;;;5.73;3.60;;;;;;;2.80;42.80;95782.02;1702408;84;21099;-69
2022/03/09 11:12:05;;;;;;;8.00;4.90;;;;;;;3.73;41.19;95784.02;1702239;84;21497;-69
2022/03/09 11:14:32;;;;;;;9.43;5.87;;;;;;;4.14;39.51;95779.23;1702395;84;21585;-68
2022/03/09 11:17:00;;;;;;;8.00;5.30;;;;;;;3.97;38.01;95781.67;1702149;84;21014;-68
2022/03/09 11:19:27;;;;;;;7.73;5.20;;;;;;;4.31;38.74;95773.73;1703121;84;21106;-68
2022/03/09 11:21:55;;;;;;;8.03;5.77;;;;;;;4.47;38.64;95773.42;1702235;84;21003;-68
2022/03/09 11:24:21;;;;;;;8.83;5.07;;;;;;;4.16;38.14;95769.69;1702473;84;21096;-68
2022/03/09 11:26:57;;;;;;;7.97;5.20;;;;;;;3.83;38.38;95769.81;1702398;84;21485;-68
2022/03/09 11:29:35;;;;;;;6.10;4.07;;;;;;;3.38;37.70;95775.39;1702392;84;21003;-68
2022/03/09 11:32:08;;;;;;;6.47;4.10;;;;;;;3.01;38.72;95773.61;1702175;84;21485;-68
2022/03/09 11:34:48;;;;;;;6.03;3.90;;;;;;;2.83;38.95;95775.97;1702467;84;20991;-68
2022/03/09 11:37:37;;;;;;;4.90;3.40;;;;;;;2.84;39.88;95773.37;1702283;84;21497;-68
2022/03/09 11:40:12;;;;;;;8.17;3.47;;;;;;;2.79;40.99;95773.73;1702560;84;21038;-68